createdAt,value
2022-07-27T00:02:12.963Z,19.10
2022-07-27T00:07:17.553Z,19.00
2022-07-27T00:12:20.962Z,19.00
2022-07-27T00:17:24.272Z,18.90
2022-07-27T00:22:29.030Z,18.80
2022-07-27T00:27:32.297Z,18.70
2022-07-27T00:32:35.415Z,18.60
2022-07-27T00:37:41.041Z,18.60
2022-07-27T00:42:44.367Z,18.60
2022-07-27T00:47:51.706Z,18.60
2022-07-27T00:52:59.226Z,18.40
2022-07-27T00:58:03.681Z,18.40
2022-07-27T01:03:09.333Z,18.20
2022-07-27T01:08:15.321Z,18.20
2022-07-27T01:13:19.055Z,18.10
2022-07-27T01:18:31.148Z,18.10
2022-07-27T01:23:36.216Z,17.90
2022-07-27T01:28:39.596Z,17.70
2022-07-27T01:33:42.888Z,17.70
2022-07-27T01:38:47.854Z,17.60
2022-07-27T01:43:51.125Z,17.50
2022-07-27T01:48:55.119Z,17.40
2022-07-27T01:53:59.833Z,17.20
2022-07-27T01:59:03.194Z,17.20
2022-07-27T02:04:06.510Z,17.10
2022-07-27T02:09:11.297Z,17.20
2022-07-27T02:14:14.740Z,17.00
2022-07-27T02:19:18.523Z,17.00
2022-07-27T02:24:23.120Z,16.90
2022-07-27T02:29:26.304Z,16.90
2022-07-27T02:34:29.904Z,16.90
2022-07-27T02:39:34.444Z,16.80
2022-07-27T02:44:37.830Z,16.70
2022-07-27T02:49:41.056Z,16.60
2022-07-27T02:54:45.559Z,16.60
2022-07-27T02:59:48.682Z,16.60
2022-07-27T03:04:51.992Z,16.50
2022-07-27T03:09:56.691Z,16.50
2022-07-27T03:14:59.885Z,16.40
2022-07-27T03:20:03.160Z,16.40
2022-07-27T03:25:09.299Z,16.30
2022-07-27T03:30:13.256Z,16.20
2022-07-27T03:35:16.547Z,16.10
2022-07-27T03:40:21.362Z,16.00
2022-07-27T03:45:24.765Z,16.00
2022-07-27T03:50:28.268Z,16.00
2022-07-27T03:55:32.942Z,16.10
2022-07-27T04:00:36.125Z,16.10
2022-07-27T04:05:39.447Z,16.10
2022-07-27T04:10:44.655Z,16.10
2022-07-27T04:15:48.717Z,16.20
2022-07-27T04:20:51.872Z,16.30
2022-07-27T04:25:57.036Z,16.40
2022-07-27T04:31:00.358Z,16.40
2022-07-27T04:36:03.600Z,16.40
2022-07-27T04:41:08.128Z,16.40
2022-07-27T04:46:15.275Z,16.40
2022-07-27T04:51:19.596Z,16.50
2022-07-27T04:56:24.227Z,16.60
2022-07-27T05:01:31.673Z,16.70
2022-07-27T05:06:38.262Z,16.70
2022-07-27T05:11:51.165Z,16.60
2022-07-27T05:16:55.345Z,16.70
2022-07-27T05:21:58.748Z,16.70
2022-07-27T05:27:03.887Z,16.70
2022-07-27T05:32:07.908Z,16.60
2022-07-27T05:37:10.997Z,16.60
2022-07-27T05:42:15.508Z,16.80
2022-07-27T05:47:18.655Z,16.80
2022-07-27T05:52:21.814Z,17.10
2022-07-27T05:57:26.301Z,17.20
2022-07-27T06:02:31.614Z,17.20
2022-07-27T06:07:52.193Z,17.20
2022-07-27T06:12:57.020Z,17.30
2022-07-27T06:18:00.201Z,17.20
2022-07-27T06:23:07.677Z,17.30
2022-07-27T06:28:13.126Z,17.40
2022-07-27T06:33:16.919Z,17.40
2022-07-27T06:38:20.691Z,17.50
2022-07-27T06:43:27.281Z,17.60
2022-07-27T06:48:30.702Z,17.40
2022-07-27T06:53:36.269Z,17.50
2022-07-27T06:58:42.009Z,17.50
2022-07-27T07:03:45.384Z,17.80
2022-07-27T07:08:48.818Z,17.90
2022-07-27T07:13:53.570Z,18.00
2022-07-27T07:18:56.863Z,18.40
2022-07-27T07:23:59.971Z,18.80
2022-07-27T07:29:05.106Z,19.40
2022-07-27T07:34:08.351Z,19.50
2022-07-27T07:39:11.946Z,19.40
2022-07-27T07:44:16.940Z,19.50
2022-07-27T07:49:33.293Z,19.50
2022-07-27T07:54:43.370Z,19.90
2022-07-27T07:59:47.930Z,20.70
2022-07-27T08:04:51.251Z,21.50
2022-07-27T08:09:56.997Z,22.20
2022-07-27T08:15:01.856Z,22.00
2022-07-27T08:20:07.215Z,21.80
2022-07-27T08:25:11.845Z,21.70
2022-07-27T08:30:16.627Z,21.40
2022-07-27T08:35:22.248Z,21.10
2022-07-27T08:40:44.435Z,21.50
2022-07-27T08:45:55.190Z,22.00
2022-07-27T08:50:58.962Z,22.80
2022-07-27T08:56:06.771Z,23.20
2022-07-27T09:01:16.102Z,23.20
2022-07-27T09:06:44.538Z,23.30
2022-07-27T09:12:05.419Z,22.80
2022-07-27T09:22:50.902Z,25.00
2022-07-27T09:27:56.212Z,25.10
2022-07-27T09:33:03.081Z,24.70
2022-07-27T09:38:19.113Z,24.70
2022-07-27T09:48:46.998Z,26.70
2022-07-27T09:53:50.683Z,27.80
2022-07-27T09:58:55.836Z,27.70
2022-07-27T10:04:07.207Z,26.70
2022-07-27T10:09:10.646Z,26.00
2022-07-27T10:14:14.207Z,25.10
2022-07-27T10:19:22.952Z,24.20
2022-07-27T10:24:29.513Z,23.80
2022-07-27T10:29:33.451Z,24.10
2022-07-27T10:34:42.040Z,25.60
2022-07-27T10:39:47.360Z,26.40
2022-07-27T10:44:55.179Z,25.80
2022-07-27T10:50:33.461Z,25.50
2022-07-27T10:55:50.449Z,25.20
2022-07-27T11:01:00.678Z,26.80
2022-07-27T11:06:31.340Z,27.20
2022-07-27T11:11:34.864Z,26.90
2022-07-27T11:16:54.113Z,28.10
2022-07-27T11:22:04.459Z,27.20
2022-07-27T11:27:17.139Z,27.50
2022-07-27T11:32:21.912Z,28.20
2022-07-27T11:37:26.959Z,27.90
2022-07-27T11:42:39.279Z,26.70
2022-07-27T11:47:42.762Z,26.70
2022-07-27T11:53:01.614Z,26.80
2022-07-27T11:58:05.897Z,27.80
2022-07-27T12:03:10.162Z,27.70
2022-07-27T12:08:15.432Z,26.70
2022-07-27T12:13:20.054Z,26.70
2022-07-27T12:18:23.442Z,26.30
2022-07-27T12:23:31.920Z,26.00
2022-07-27T12:28:35.545Z,26.10
2022-07-27T12:33:39.733Z,26.00
2022-07-27T12:38:46.794Z,27.70
2022-07-27T12:44:06.201Z,27.40
2022-07-27T12:49:17.923Z,28.20
2022-07-27T12:54:24.098Z,29.80
2022-07-27T12:59:27.416Z,30.70
2022-07-27T13:04:31.088Z,32.10
2022-07-27T13:10:02.876Z,32.80
2022-07-27T13:14:59.356Z,31.90
2022-07-27T13:20:03.160Z,29.80
2022-07-27T13:25:16.311Z,30.20
2022-07-27T13:30:21.301Z,31.70
2022-07-27T13:35:25.049Z,30.20
2022-07-27T13:40:29.873Z,29.30
2022-07-27T13:45:43.188Z,29.50
2022-07-27T13:50:46.981Z,29.40
2022-07-27T13:55:51.753Z,28.50
2022-07-27T14:00:57.291Z,29.40
2022-07-27T14:06:01.343Z,29.20
2022-07-27T14:11:07.354Z,27.70
2022-07-27T14:16:11.008Z,27.10
2022-07-27T14:21:15.222Z,26.90
2022-07-27T14:26:20.059Z,26.70
2022-07-27T14:31:23.817Z,26.50
2022-07-27T14:36:27.187Z,26.30
2022-07-27T14:41:31.999Z,26.00
2022-07-27T14:46:35.443Z,26.10
2022-07-27T14:51:38.817Z,26.40
2022-07-27T14:56:43.726Z,26.00
2022-07-27T15:01:46.945Z,25.50
2022-07-27T15:06:50.302Z,24.80
2022-07-27T15:11:55.179Z,24.10
2022-07-27T15:16:58.446Z,23.70
2022-07-27T15:22:01.723Z,23.60
2022-07-27T15:27:06.372Z,23.70
2022-07-27T15:32:10.643Z,23.50
2022-07-27T15:37:14.614Z,23.40
2022-07-27T15:42:19.184Z,23.50
2022-07-27T15:47:22.441Z,23.60
2022-07-27T15:52:25.570Z,23.50
2022-07-27T15:57:30.066Z,23.20
2022-07-27T16:02:33.214Z,23.10
2022-07-27T16:07:41.789Z,23.10
2022-07-27T16:12:46.620Z,23.30
2022-07-27T16:17:49.856Z,23.50
2022-07-27T16:22:53.048Z,23.50
2022-07-27T16:27:57.627Z,23.20
2022-07-27T16:33:01.424Z,23.10
2022-07-27T16:38:04.554Z,22.90
2022-07-27T16:43:09.231Z,22.70
2022-07-27T16:48:13.078Z,22.40
2022-07-27T16:53:17.330Z,22.30
2022-07-27T16:58:22.006Z,22.20
2022-07-27T17:03:25.218Z,22.10
2022-07-27T17:08:28.371Z,21.90
2022-07-27T17:13:34.208Z,21.80
2022-07-27T17:18:40.416Z,21.60
2022-07-27T17:23:44.211Z,21.30
2022-07-27T17:28:48.814Z,21.40
2022-07-27T17:33:52.536Z,21.30
2022-07-27T17:38:56.167Z,21.20
2022-07-27T17:44:01.171Z,21.20
2022-07-27T17:49:04.790Z,21.00
2022-07-27T17:54:08.065Z,20.90
2022-07-27T17:59:35.900Z,20.80
2022-07-27T18:04:39.361Z,20.70
2022-07-27T18:09:42.927Z,20.60
2022-07-27T18:15:01.273Z,20.30
2022-07-27T18:20:04.928Z,20.30
2022-07-27T18:25:09.779Z,20.10
2022-07-27T18:30:17.605Z,20.00
2022-07-27T18:35:20.752Z,19.90
2022-07-27T18:40:24.120Z,19.90
2022-07-27T18:45:34.383Z,19.70
2022-07-27T18:50:39.718Z,19.60
2022-07-27T18:55:43.374Z,19.50
2022-07-27T19:00:48.028Z,19.40
2022-07-27T19:05:52.951Z,19.30
2022-07-27T19:10:56.323Z,19.10
2022-07-27T19:16:01.567Z,18.90
2022-07-27T19:21:04.785Z,18.80
2022-07-27T19:26:08.964Z,18.70
2022-07-27T19:31:23.199Z,18.60
2022-07-27T19:36:26.825Z,18.50
2022-07-27T19:41:29.941Z,18.30
2022-07-27T19:46:34.751Z,18.10
2022-07-27T19:51:37.997Z,18.00
2022-07-27T19:56:41.210Z,18.00
2022-07-27T20:01:45.865Z,17.80
2022-07-27T20:06:49.086Z,17.50
2022-07-27T20:11:54.492Z,17.40
2022-07-27T20:17:03.026Z,17.30
2022-07-27T20:22:06.947Z,17.20
2022-07-27T20:27:10.162Z,17.20
2022-07-27T20:32:16.842Z,17.20
2022-07-27T20:37:20.148Z,17.20
2022-07-27T20:42:27.898Z,17.20
2022-07-27T20:47:34.817Z,17.20
2022-07-27T20:52:39.116Z,17.00
2022-07-27T20:57:44.474Z,16.90
2022-07-27T21:02:49.565Z,16.80
2022-07-27T21:07:53.364Z,16.70
2022-07-27T21:12:56.847Z,16.60
2022-07-27T21:18:01.994Z,16.60
2022-07-27T21:23:24.419Z,16.60
2022-07-27T21:28:27.766Z,16.60
2022-07-27T21:33:37.573Z,16.60
2022-07-27T22:18:37.295Z,15.80
2022-07-27T22:23:41.099Z,15.60
2022-07-27T22:28:44.239Z,15.40
2022-07-27T22:33:48.861Z,15.40
2022-07-27T22:38:52.037Z,15.40
2022-07-27T22:43:55.144Z,15.40
2022-07-27T22:48:59.886Z,15.50
2022-07-27T22:54:03.076Z,15.50
2022-07-27T22:59:06.352Z,15.40
2022-07-27T23:04:11.344Z,15.30
2022-07-27T23:09:15.090Z,15.30
2022-07-27T23:14:19.102Z,15.30
2022-07-27T23:19:24.065Z,15.20
2022-07-27T23:24:28.862Z,15.20
2022-07-27T23:29:32.773Z,15.10
2022-07-27T23:34:37.409Z,15.00
2022-07-27T23:39:40.814Z,15.00
2022-07-27T23:44:44.133Z,14.90
2022-07-27T23:49:49.480Z,14.90
2022-07-27T23:54:52.647Z,14.80
2022-07-27T23:59:55.853Z,14.80
